Site contains unofficial IBTrACS data. Visit the IBTrACS Website to access archived data.

2000 Severe Tropical Cyclone ROSITA (2000105S09127)


IBTrACS version v04r00. Visit IBTrACS website for data access.
Please direct all questions to the IBTrACS Q and A forum

Storm track - Intensity - Wind Radii - Intensity Data - Source Data - All data

Summary Information

Satellite image near maximum intensity
Storm ID 2000105S09127
Start Apr 14 04Z
Landfall Apr 19 18Z
Max Intensity 125 kt (Apr 19 18Z), 930 mb (Apr 19 07Z)
End Apr 21 00Z
ATCF IDs ,SH272000
Track status Best track data.

Storm track plot

Map of storm track

Intensity plots

Map of storm track

Radial wind information

Map of storm track

Position and Intensity Table

BASIN ISO_TIME_________ NATURE LAT LON WMO WIND WMO PRES USA WIND BOM WIND BOM PRES NEUMANN WIND
degrees north degrees east kts mb kts kts mb kts
SI 2000-04-14 04:00:00 NR -9.50 127.00 20 1006 20 1006
SI 06:00:00 NR -9.76 126.55
SI 09:00:00 NR -10.16 125.88
SI 12:00:00 NR -10.53 125.22
SI 15:00:00 NR -10.89 124.57
SI 18:00:00 NR -11.22 123.93
SI 21:00:00 NR -11.51 123.32
SI 2000-04-15 00:00:00 NR -11.75 122.73
SI 03:00:00 NR -11.95 122.18
SI 04:00:00 NR -12.00 122.00 20 1004 20 1004
SI 06:00:00 NR -12.09 121.66 20 1004
SI 09:00:00 NR -12.18 121.16 20 1004
SI 10:00:00 NR -12.20 121.00 20 1004 20 1004
SI 12:00:00 NR -12.23 120.63 21 1002
SI 15:00:00 NR -12.27 120.13 24 1000
SI 16:00:00 NR -12.30 120.00 25 1000 25 1000
SI 18:00:00 NR -12.38 119.83 25 1000
SI 21:00:00 NR -12.54 119.72 25 1000
SI 22:00:00 NR -12.60 119.70 25 1000 25 1000
SI 2000-04-16 00:00:00 NR -12.71 119.65 25 1000
SI 03:00:00 NR -12.86 119.61 25 1000
SI 04:00:00 NR -12.90 119.60 25 1000 25 1000
SI 06:00:00 NR -12.97 119.56 25 1000
SI 09:00:00 NR -13.07 119.51 25 1000
SI 10:00:00 NR -13.10 119.50 25 1000 25 1000
SI 12:00:00 NR -13.16 119.49 25 1000
SI 15:00:00 NR -13.26 119.50 25 1000
SI 16:00:00 NR -13.30 119.50 25 1000 25 1000
SI 18:00:00 TS -13.29 119.63 30 25 1000 30
SI 21:00:00 TS -13.42 119.67 30 25 1000 30
SI 22:00:00 TS -13.46 119.70 25 1000 30 25 1000 30
SI 2000-04-17 00:00:00 TS -13.57 119.70 30 25 1000 30
SI 03:00:00 TS -13.76 119.68 32 25 1000 32
SI 04:00:00 TS -13.83 119.67 25 1000 33 25 1000 33
SI 06:00:00 TS -13.99 119.62 35 25 1000 35
SI 09:00:00 TS -14.32 119.48 35 25 1000 35
SI 10:00:00 TS -14.43 119.42 25 1000 35 25 1000 35
SI 12:00:00 TS -14.67 119.32 35 26 1000 35
SI 15:00:00 TS -15.01 119.22 42 29 1000 42
SI 16:00:00 TS -15.12 119.20 30 1000 45 30 1000 45
SI 18:00:00 TS -15.32 119.16 50 31 998 50
SI 21:00:00 TS -15.61 119.12 50 34 995 50
SI 22:00:00 TS -15.70 119.11 35 995 50 35 995 50
SI 2000-04-18 00:00:00 TS -15.90 119.10 50 35 995 50
SI 03:00:00 TS -16.20 119.09 50 35 995 50
SI 04:00:00 TS -16.29 119.10 35 995 50 35 995 50
SI 06:00:00 TS -16.49 119.10 50 39 991 50
SI 09:00:00 TS -16.83 119.08 52 47 986 52
SI 10:00:00 TS -16.94 119.08 50 985 53 50 985 53
SI 12:00:00 TS -17.12 119.10 55 54 980 55
SI 15:00:00 TS -17.25 119.22 60 62 972 60
SI 16:00:00 TS -17.27 119.29 65 970 61 65 970 61
SI 18:00:00 TS -17.29 119.45 65 69 966 65
SI 21:00:00 TS -17.35 119.73 67 77 961 67
SI 22:00:00 TS -17.37 119.83 80 960 68 80 960 68
SI 2000-04-19 00:00:00 TS -17.42 120.00 70 83 956 70
SI 03:00:00 TS -17.51 120.26 80 88 951 80
SI 04:00:00 TS -17.54 120.36 90 950 83 90 950 83
SI 06:00:00 TS -17.62 120.59 90 103 936 90
SI 07:00:00 TS -17.67 120.71 110 930 92 110 930 92
SI 09:00:00 TS -17.78 120.97 97 113 930 97
SI 10:00:00 TS -17.84 121.11 115 930 100 115 930 100
SI 12:00:00 TS -17.95 121.41 105 115 930 105
SI 13:00:00 TS -18.01 121.56 115 930 108 115 930 108
SI 15:00:00 TS -18.15 121.83 115 115 930 115
SI 16:00:00 TS -18.23 121.98 115 930 118 115 930 118
SI 18:00:00 TS -18.40 122.31 125 101 936 125
SI 19:00:00 TS -18.49 122.49 95 940 119 95 940 119
SI 21:00:00 TS -18.67 122.86 107 88 946 107
SI 22:00:00 TS -18.76 123.06 85 950 101 85 950 101
SI 2000-04-20 00:00:00 TS -18.96 123.44 90 78 956 90
SI 01:00:00 TS -19.06 123.62 75 960 83 75 960 83
SI 03:00:00 TS -19.23 124.01 70 70 965 70
SI 06:00:00 TS -19.51 124.67 50 63 973 50
SI 09:00:00 TS -19.85 125.51 45 57 982 45
SI 10:00:00 TS -19.96 125.81 55 985 43 55 985 43
SI 12:00:00 TS -20.15 126.36 40 45 991 40
SI 13:00:00 TS -20.22 126.60 40 995 38 40 995 38
SI 15:00:00 TS -20.35 127.08 35 36 995 35
SI 16:00:00 TS -20.40 127.30 35 995 33 35 995 33
SI 18:00:00 TS -20.48 127.67 30 33 996 30
SI 21:00:00 TS -20.53 128.26 30 30 999 30
SI 22:00:00 TS -20.53 128.38 30 1000 30 30 1000 30
SI 2000-04-21 00:00:00 TS -20.50 128.40 30 30

Source Information

Agency Information
USA bsh272000.txt
TOKYO
CMA
HKO
NEWDELHI
REUNION
BOM IDCKMSTM0S.csv:Line=20784:ROSITA
NADI
WELLINGTON
DS824
TD9636
TD9635
NEUMANN tracks.sh:Storm=1203:ROSITA:27S:BSH272000
MLC

All available IBTrACS Data

SEASON BASIN SUBBASIN ISO_TIME_________ NATURE LAT LON WMO WIND WMO PRES WMO AGENCY DIST2LAND LANDFALL IFLAG USA AGENCY USA ATCF_ID USA LAT USA LON USA WIND USA SSHS BOM LAT BOM LON BOM TYPE BOM WIND BOM PRES BOM CI BOM ROCI BOM EYE BOM POS_METHOD BOM PRES_METHOD NEUMANN LAT NEUMANN LON NEUMANN CLASS NEUMANN WIND STORM SPEED STORM DIR
Year degrees north degrees east kts mb km km degrees north degrees east kts 1 degrees north degrees east kts mb 1 nmile nmile degrees north degrees east kts kts degrees
2000 SI WA 2000-04-14 04:00:00 NR -9.50 127.00 20 1006 bom 78 71 ______O_______ -1 -9.50 127.00 20 20 1006 1.00 215 3 5 15 239
2000 SI WA 06:00:00 NR -9.76 126.55 90 89 ______P_______ -1 -9.76 126.55 20 15 239
2000 SI WA 09:00:00 NR -10.16 125.88 114 93 ______P_______ -1 -10.16 125.88 20 15 240
2000 SI WA 12:00:00 NR -10.53 125.22 86 78 ______P_______ -1 -10.53 125.22 20 15 240
2000 SI WA 15:00:00 NR -10.89 124.57 90 84 ______P_______ -1 -10.89 124.57 20 14 242
2000 SI WA 18:00:00 NR -11.22 123.93 90 90 ______P_______ -1 -11.22 123.93 20 14 243
2000 SI WA 21:00:00 NR -11.51 123.32 125 125 ______P_______ -1 -11.51 123.32 20 13 245
2000 SI WA 2000-04-15 00:00:00 NR -11.75 122.73 179 179 ______P_______ -1 -11.75 122.73 20 12 248
2000 SI WA 03:00:00 NR -11.95 122.18 219 219 ______P_______ -1 -11.95 122.18 20 11 251
2000 SI WA 04:00:00 NR -12.00 122.00 20 1004 bom 242 234 ______O_______ -1 -12.00 122.00 20 20 1004 1.00 215 3 5 11 255
2000 SI WA 06:00:00 NR -12.09 121.66 239 224 ______P_______ -1 -12.09 121.66 20 20 1004 215 10 258
2000 SI WA 09:00:00 NR -12.18 121.16 226 219 ______P_______ -1 -12.18 121.16 20 20 1004 215 10 260
2000 SI WA 10:00:00 NR -12.20 121.00 20 1004 bom 219 213 ______O_______ -1 -12.20 121.00 20 20 1004 1.00 215 3 5 11 264
2000 SI WA 12:00:00 NR -12.23 120.63 213 212 ______P_______ -1 -12.23 120.63 20 21 1002 215 10 265
2000 SI WA 15:00:00 NR -12.27 120.13 228 228 ______P_______ -1 -12.27 120.13 20 24 1000 215 9 264
2000 SI WA 16:00:00 NR -12.30 120.00 25 1000 bom 230 230 ______O_______ -1 -12.30 120.00 20 25 1000 2.00 215 3 5 6 249
2000 SI WA 18:00:00 NR -12.38 119.83 247 247 ______P_______ -1 -12.38 119.83 20 25 1000 215 4 228
2000 SI WA 21:00:00 NR -12.54 119.72 261 261 ______P_______ -1 -12.54 119.72 20 25 1000 215 4 212
2000 SI WA 22:00:00 NR -12.60 119.70 25 1000 bom 271 271 ______O_______ -1 -12.60 119.70 20 25 1000 2.00 215 3 5 4 205
2000 SI WA 2000-04-16 00:00:00 NR -12.71 119.65 282 282 ______P_______ -1 -12.71 119.65 20 25 1000 215 3 199
2000 SI WA 03:00:00 NR -12.86 119.61 307 307 ______P_______ -1 -12.86 119.61 20 25 1000 215 3 195
2000 SI WA 04:00:00 NR -12.90 119.60 25 1000 bom 307 307 ______O_______ -1 -12.90 119.60 20 25 1000 2.00 215 3 5 3 205
2000 SI WA 06:00:00 NR -12.97 119.56 317 317 ______P_______ -1 -12.97 119.56 20 25 1000 215 2 207
2000 SI WA 09:00:00 NR -13.07 119.51 331 331 ______P_______ -1 -13.07 119.51 20 25 1000 215 2 204
2000 SI WA 10:00:00 NR -13.10 119.50 25 1000 bom 331 331 ______O_______ -1 -13.10 119.50 20 25 1000 2.00 215 3 5 2 0
2000 SI WA 12:00:00 NR -13.16 119.49 342 342 ______P_______ -1 -13.16 119.49 20 25 1000 215 2 189
2000 SI WA 15:00:00 NR -13.26 119.50 353 353 ______P_______ -1 -13.26 119.50 20 25 1000 215 2 0
2000 SI WA 16:00:00 NR -13.30 119.50 25 1000 bom 353 349 ______O_______ -1 -13.30 119.50 20 25 1000 2.00 215 3 5 3 103
2000 SI WA 18:00:00 TS -13.29 119.63 349 347 O_____P_____O_ jtwc_sh SH272000 -13.10 119.90 30 -1 -13.39 119.50 20 25 1000 215 -13.10 119.90 TC 30 3 127
2000 SI WA 21:00:00 TS -13.42 119.67 357 357 P_____P_____P_ SH272000 -13.31 119.84 30 -1 -13.54 119.50 20 25 1000 215 -13.31 119.84 TC 30 3 163
2000 SI WA 22:00:00 TS -13.46 119.70 25 1000 bom 368 368 P_____O_____P_ SH272000 -13.37 119.83 30 -1 -13.60 119.50 20 25 1000 2.00 215 3 5 -13.37 119.83 TC 30 3 164
2000 SI WA 2000-04-17 00:00:00 TS -13.57 119.70 379 379 O_____P_____O_ jtwc_sh SH272000 -13.50 119.80 30 -1 -13.71 119.51 20 25 1000 215 -13.50 119.80 TC 30 4 0
2000 SI WA 03:00:00 TS -13.76 119.68 401 401 P_____P_____P_ SH272000 -13.68 119.77 32 -1 -13.92 119.51 20 25 1000 215 -13.68 119.77 TC 32 4 188
2000 SI WA 04:00:00 TS -13.83 119.67 25 1000 bom 401 401 P_____O_____P_ SH272000 -13.74 119.76 33 -1 -14.00 119.50 20 25 1000 2.00 215 3 5 -13.74 119.76 TC 33 5 194
2000 SI WA 06:00:00 TS -13.99 119.62 425 425 O_____P_____O_ jtwc_sh SH272000 -13.90 119.70 35 0 -14.18 119.47 20 25 1000 215 -13.90 119.70 TC 35 6 201
2000 SI WA 09:00:00 TS -14.32 119.48 433 425 P_____P_____P_ SH272000 -14.23 119.51 35 0 -14.49 119.42 20 25 1000 215 -14.23 119.51 TC 35 7 204
2000 SI WA 10:00:00 TS -14.43 119.42 25 1000 bom 433 417 P_____O_____P_ SH272000 -14.35 119.43 35 0 -14.60 119.40 20 25 1000 2.00 215 3 5 -14.35 119.43 TC 35 8 203
2000 SI WA 12:00:00 TS -14.67 119.32 418 404 O_____P_____O_ jtwc_sh SH272000 -14.60 119.30 35 0 -14.81 119.36 20 26 1000 215 -14.60 119.30 TC 35 7 199
2000 SI WA 15:00:00 TS -15.01 119.22 406 399 P_____P_____P_ SH272000 -14.96 119.18 42 0 -15.11 119.31 20 29 1000 215 -14.96 119.18 TC 42 7 195
2000 SI WA 16:00:00 TS -15.12 119.20 30 1000 bom 399 387 P_____O_____P_ SH272000 -15.07 119.15 45 0 -15.20 119.30 20 30 1000 2.50 215 3 5 -15.07 119.15 TC 45 6 190
2000 SI WA 18:00:00 TS -15.32 119.16 387 380 O_____P_____O_ jtwc_sh SH272000 -15.30 119.10 50 0 -15.37 119.29 20 31 998 215 -15.30 119.10 TC 50 6 187
2000 SI WA 21:00:00 TS -15.61 119.12 380 375 P_____P_____P_ SH272000 -15.61 119.03 50 0 -15.61 119.30 20 34 995 215 -15.61 119.03 TC 50 6 189
2000 SI WA 22:00:00 TS -15.70 119.11 35 995 bom 375 365 P_____O_____P_ SH272000 -15.71 119.02 50 0 -15.70 119.30 30 35 995 3.00 215 3 5 -15.71 119.02 TC 50 6 185
2000 SI WA 2000-04-18 00:00:00 TS -15.90 119.10 365 352 O_____P_____O_ jtwc_sh SH272000 -15.90 119.00 50 0 -15.90 119.30 30 35 995 215 -15.90 119.00 TC 50 6 181
2000 SI WA 03:00:00 TS -16.20 119.09 352 348 P_____P_____P_ SH272000 -16.19 118.99 50 0 -16.20 119.30 30 35 995 215 -16.19 118.99 TC 50 6 181
2000 SI WA 04:00:00 TS -16.29 119.10 35 995 bom 348 341 P_____O_____P_ SH272000 -16.29 118.99 50 0 -16.30 119.30 30 35 995 3.00 215 3 5 -16.29 118.99 TC 50 6 0
2000 SI WA 06:00:00 TS -16.49 119.10 341 331 O_____P_____O_ jtwc_sh SH272000 -16.50 119.00 50 0 -16.48 119.29 30 39 991 215 -16.50 119.00 TC 50 7 0
2000 SI WA 09:00:00 TS -16.83 119.08 331 328 P_____P_____P_ SH272000 -16.89 118.97 52 0 -16.72 119.29 30 47 986 215 -16.89 118.97 TC 52 7 181
2000 SI WA 10:00:00 TS -16.94 119.08 50 985 bom 328 322 P_____O_____P_ SH272000 -17.01 118.97 53 0 -16.80 119.30 30 50 985 3.50 215 3 5 -17.01 118.97 TC 53 6 175
2000 SI WA 12:00:00 TS -17.12 119.10 322 307 O_____P_____O_ jtwc_sh SH272000 -17.20 119.00 55 0 -16.95 119.30 30 54 980 215 -17.20 119.00 TC 55 4 156
2000 SI WA 15:00:00 TS -17.25 119.22 307 292 P_____P_____P_ SH272000 -17.29 119.16 60 0 -17.15 119.36 30 62 972 215 -17.29 119.16 TC 60 3 130
2000 SI WA 16:00:00 TS -17.27 119.29 65 970 bom 292 283 P_____O_____P_ SH272000 -17.30 119.23 61 0 -17.20 119.40 30 65 970 4.50 215 4 3 5 -17.30 119.23 TC 61 4 103
2000 SI WA 18:00:00 TS -17.29 119.45 283 256 O_____P_____O_ jtwc_sh SH272000 -17.30 119.40 65 1 -17.28 119.54 30 69 966 215 -17.30 119.40 TC 65 5 102
2000 SI WA 21:00:00 TS -17.35 119.73 250 241 P_____P_____P_ SH272000 -17.34 119.69 67 1 -17.37 119.81 30 77 961 215 -17.34 119.69 TC 67 6 102
2000 SI WA 22:00:00 TS -17.37 119.83 80 960 bom 241 223 P_____O_____P_ SH272000 -17.36 119.79 68 1 -17.40 119.90 40 80 960 5.00 215 4 6 5 -17.36 119.79 TC 68 5 105
2000 SI WA 2000-04-19 00:00:00 TS -17.42 120.00 223 200 O_____P_____O_ jtwc_sh SH272000 -17.40 120.00 70 1 -17.47 120.01 40 83 956 215 -17.40 120.00 TC 70 5 108
2000 SI WA 03:00:00 TS -17.51 120.26 191 191 P_____P_____P_ SH272000 -17.48 120.29 80 1 -17.57 120.20 40 88 951 215 -17.48 120.29 TC 80 5 110
2000 SI WA 04:00:00 TS -17.54 120.36 90 950 bom 180 159 P_____O_____P_ SH272000 -17.51 120.38 83 2 -17.60 120.30 40 90 950 5.50 215 4 6 5 -17.51 120.38 TC 83 7 110
2000 SI WA 06:00:00 TS -17.62 120.59 159 145 O_____P_____O_ jtwc_sh SH272000 -17.60 120.60 90 2 -17.67 120.56 40 103 936 215 -17.60 120.60 TC 90 7 111
2000 SI WA 07:00:00 TS -17.67 120.71 110 930 bom 145 123 P_____O_____P_ SH272000 -17.66 120.72 92 2 -17.70 120.70 40 110 930 6.50 215 4 6 5 -17.66 120.72 TC 92 8 113
2000 SI WA 09:00:00 TS -17.78 120.97 115 107 P_____P_____P_ SH272000 -17.78 120.98 97 3 -17.77 120.96 40 113 930 215 -17.78 120.98 TC 97 8 114
2000 SI WA 10:00:00 TS -17.84 121.11 115 930 bom 107 76 P_____O_____P_ SH272000 -17.86 121.11 100 3 -17.80 121.10 40 115 930 6.50 215 4 6 5 -17.86 121.11 TC 100 9 112
2000 SI WA 12:00:00 TS -17.95 121.41 69 61 O_____P_____O_ jtwc_sh SH272000 -18.00 121.40 105 3 -17.85 121.44 40 115 930 215 -18.00 121.40 TC 105 9 112
2000 SI WA 13:00:00 TS -18.01 121.56 115 930 bom 54 35 P_____O_____P_ SH272000 -18.06 121.54 108 3 -17.90 121.60 40 115 930 6.50 215 4 6 5 -18.06 121.54 TC 108 9 117
2000 SI WA 15:00:00 TS -18.15 121.83 24 15 P_____P_____P_ SH272000 -18.18 121.82 115 4 -18.09 121.86 40 115 930 215 -18.18 121.82 TC 115 9 119
2000 SI WA 16:00:00 TS -18.23 121.98 115 930 bom 15 0 P_____O_____P_ SH272000 -18.25 121.97 118 4 -18.20 122.00 40 115 930 6.50 215 4 6 5 -18.25 121.97 TC 118 10 119
2000 SI WA 18:00:00 TS -18.40 122.31 0 0 O_____P_____O_ jtwc_sh SH272000 -18.40 122.30 125 4 -18.41 122.33 40 101 936 215 -18.40 122.30 TC 125 11 118
2000 SI WA 19:00:00 TS -18.49 122.49 95 940 bom 0 0 P_____O_____P_ SH272000 -18.49 122.48 119 4 -18.50 122.50 40 95 940 215 4 6 5 -18.49 122.48 TC 119 12 117
2000 SI WA 21:00:00 TS -18.67 122.86 0 0 P_____P_____P_ SH272000 -18.69 122.88 107 3 -18.63 122.83 40 88 946 179 -18.69 122.88 TC 107 12 117
2000 SI WA 22:00:00 TS -18.76 123.06 85 950 bom 0 0 P_____O_____P_ SH272000 -18.80 123.08 101 3 -18.70 123.00 40 85 950 161 4 6 5 -18.80 123.08 TC 101 12 118
2000 SI WA 2000-04-20 00:00:00 TS -18.96 123.44 0 0 O_____P_____O_ jtwc_sh SH272000 -19.00 123.50 90 2 -18.89 123.32 40 78 956 161 -19.00 123.50 TC 90 12 118
2000 SI WA 01:00:00 TS -19.06 123.62 75 960 bom 0 0 P_____O_____P_ SH272000 -19.08 123.69 83 2 -19.00 123.50 40 75 960 161 4 6 5 -19.08 123.69 TC 83 12 117
2000 SI WA 03:00:00 TS -19.23 124.01 0 0 P_____P_____P_ SH272000 -19.24 124.06 70 1 -19.21 123.90 40 70 965 161 -19.24 124.06 TC 70 13 115
2000 SI WA 06:00:00 TS -19.51 124.67 0 0 O_____P_____O_ jtwc_sh SH272000 -19.50 124.70 50 0 -19.53 124.60 40 63 973 161 -19.50 124.70 TC 50 15 114
2000 SI WA 09:00:00 TS -19.85 125.51 0 0 P_____P_____P_ SH272000 -19.87 125.56 45 0 -19.82 125.41 40 57 982 161 -19.87 125.56 TC 45 17 113
2000 SI WA 10:00:00 TS -19.96 125.81 55 985 bom 0 0 P_____O_____P_ SH272000 -19.99 125.86 43 0 -19.90 125.70 30 55 985 161 4 3 5 -19.99 125.86 TC 43 17 110
2000 SI WA 12:00:00 TS -20.15 126.36 0 0 O_____P_____O_ jtwc_sh SH272000 -20.20 126.40 40 0 -20.04 126.28 30 45 991 161 -20.20 126.40 TC 40 16 109
2000 SI WA 13:00:00 TS -20.22 126.60 40 995 bom 0 0 P_____O_____P_ SH272000 -20.28 126.61 38 0 -20.10 126.60 30 40 995 161 4 3 5 -20.28 126.61 TC 38 14 107
2000 SI WA 15:00:00 TS -20.35 127.08 0 0 P_____P_____P_ SH272000 -20.40 126.95 35 0 -20.24 127.33 30 36 995 161 -20.40 126.95 TC 35 14 105
2000 SI WA 16:00:00 TS -20.40 127.30 35 995 bom 0 0 P_____O_____P_ SH272000 -20.44 127.11 33 -1 -20.30 127.70 30 35 995 161 4 3 5 -20.44 127.11 TC 33 11 103
2000 SI WA 18:00:00 TS -20.48 127.67 0 0 O_____P_____O_ jtwc_sh SH272000 -20.50 127.40 30 -1 -20.41 128.41 30 33 996 161 -20.50 127.40 TC 30 11 98
2000 SI WA 21:00:00 TS -20.53 128.26 0 0 P_____P_____P_ SH272000 -20.52 127.88 30 -1 -20.56 129.38 30 30 999 161 -20.52 127.88 TC 30 10 95
2000 SI WA 22:00:00 TS -20.53 128.38 30 1000 bom 0 0 P_____O_____P_ SH272000 -20.52 128.05 30 -1 -20.60 129.70 80 30 1000 161 3 5 -20.52 128.05 TC 30 3 78
2000 SI WA 2000-04-21 00:00:00 TS -20.50 128.40 0 O___________O_ jtwc_sh SH272000 -20.50 128.40 30 -1 80 -20.50 128.40 TC 30 1 33